Observation data for Denver City on 02/24/2021      Previous  Date  Next       Current Mesonet Observations  Soil Data  Daily Summary Page  Observations in Plain Language
KDVS 240600Z 29011KT 10/M13 A2991 RMK A01 T00961125  RH  020%=      5-min Rain = 0
KDVS 240605Z 30009KT 09/M12 A2991 RMK A01 T00871121  RH  021%=      5-min Rain = 0
KDVS 240610Z 30009KT 08/M12 A2991 RMK A01 T00791122  RH  022%=      5-min Rain = 0
KDVS 240615Z 29012KT 08/M12 A2991 RMK A01 T00771123  RH  023%=      5-min Rain = 0
KDVS 240620Z 29013KT 09/M12 A2991 RMK A01 T00881123  RH  021%=      5-min Rain = 0
KDVS 240625Z 30012KT 10/M12 A2991 RMK A01 T00961124  RH  020%=      5-min Rain = 0
KDVS 240630Z 30012KT 09/M12 A2992 RMK A01 T00901122  RH  021%=      5-min Rain = 0
KDVS 240635Z 30012KT 09/M12 A2992 RMK A01 T00851120  RH  022%=      5-min Rain = 0
KDVS 240640Z 30013KT 08/M12 A2992 RMK A01 T00821120  RH  022%=      5-min Rain = 0
KDVS 240645Z 29013KT 08/M12 A2992 RMK A01 T00811120  RH  023%=      5-min Rain = 0
KDVS 240650Z 29013KT 08/M12 A2992 RMK A01 T00831120  RH  022%=      5-min Rain = 0
KDVS 240655Z 29012KT 08/M12 A2992 RMK A01 T00801119  RH  023%=      5-min Rain = 0
KDVS 240700Z 29013KT 08/M12 A2992 RMK A01 T00761119  RH  023%=      5-min Rain = 0
KDVS 240705Z 29013KT 08/M12 A2992 RMK A01 T00821119  RH  023%=      5-min Rain = 0
KDVS 240710Z 29014KT 09/M12 A2992 RMK A01 T00901122  RH  021%=      5-min Rain = 0
KDVS 240715Z 29013KT 09/M12 A2992 RMK A01 T00911124  RH  020%=      5-min Rain = 0
KDVS 240720Z 28012KT 08/M12 A2992 RMK A01 T00821122  RH  022%=      5-min Rain = 0
KDVS 240725Z 29011KT 07/M12 A2993 RMK A01 T00741121  RH  023%=      5-min Rain = 0
KDVS 240730Z 28010KT 07/M12 A2993 RMK A01 T00661120  RH  025%=      5-min Rain = 0
KDVS 240735Z 28010KT 06/M12 A2993 RMK A01 T00641119  RH  025%=      5-min Rain = 0
KDVS 240740Z 28010KT 07/M12 A2994 RMK A01 T00681119  RH  025%=      5-min Rain = 0
KDVS 240745Z 27010KT 06/M12 A2994 RMK A01 T00641118  RH  026%=      5-min Rain = 0
KDVS 240750Z 27010KT 06/M12 A2994 RMK A01 T00631118  RH  026%=      5-min Rain = 0
KDVS 240755Z 26010KT 06/M12 A2995 RMK A01 T00621118  RH  026%=      5-min Rain = 0
KDVS 240800Z 25011KT 06/M12 A2995 RMK A01 T00601119  RH  026%=      5-min Rain = 0
KDVS 240805Z 25010KT 05/M12 A2995 RMK A01 T00511119  RH  028%=      5-min Rain = 0
KDVS 240810Z 24011KT 05/M12 A2995 RMK A01 T00481120  RH  028%=      5-min Rain = 0
KDVS 240815Z 24009KT 05/M12 A2995 RMK A01 T00461120  RH  029%=      5-min Rain = 0
KDVS 240820Z 24010KT 04/M12 A2995 RMK A01 T00441118  RH  029%=      5-min Rain = 0
KDVS 240825Z 25010KT 05/M12 A2995 RMK A01 T00481117  RH  029%=      5-min Rain = 0
KDVS 240830Z 24011KT 05/M12 A2995 RMK A01 T00481117  RH  029%=      5-min Rain = 0
KDVS 240835Z 24011KT 05/M12 A2995 RMK A01 T00471118  RH  029%=      5-min Rain = 0
KDVS 240840Z 25010KT 04/M12 A2995 RMK A01 T00421117  RH  030%=      5-min Rain = 0
KDVS 240845Z 26011KT 05/M12 A2995 RMK A01 T00451117  RH  030%=      5-min Rain = 0
KDVS 240850Z 26011KT 05/M12 A2995 RMK A01 T00501117  RH  029%=      5-min Rain = 0
KDVS 240855Z 26011KT 05/M12 A2995 RMK A01 T00521117  RH  028%=      5-min Rain = 0
KDVS 240900Z 26011KT 05/M12 A2995 RMK A01 T00531118  RH  028%=      5-min Rain = 0
KDVS 240905Z 26011KT 05/M12 A2995 RMK A01 T00531118  RH  028%=      5-min Rain = 0
KDVS 240910Z 26010KT 05/M12 A2995 RMK A01 T00521118  RH  028%=      5-min Rain = 0
KDVS 240915Z 26010KT 05/M12 A2996 RMK A01 T00521117  RH  028%=      5-min Rain = 0
KDVS 240920Z 26010KT 05/M12 A2996 RMK A01 T00501116  RH  029%=      5-min Rain = 0
KDVS 240925Z 26009KT 05/M12 A2996 RMK A01 T00481116  RH  029%=      5-min Rain = 0
KDVS 240930Z 26008KT 05/M12 A2996 RMK A01 T00471116  RH  029%=      5-min Rain = 0
KDVS 240935Z 25008KT 05/M12 A2997 RMK A01 T00451116  RH  030%=      5-min Rain = 0
KDVS 240940Z 26008KT 04/M12 A2997 RMK A01 T00421116  RH  030%=      5-min Rain = 0
KDVS 240945Z 27006KT 04/M12 A2997 RMK A01 T00411115  RH  031%=      5-min Rain = 0
KDVS 240950Z 28006KT 04/M11 A2998 RMK A01 T00361112  RH  033%=      5-min Rain = 0
KDVS 240955Z 30006KT 03/M11 A2998 RMK A01 T00331111  RH  034%=      5-min Rain = 0
KDVS 241000Z 31005KT 03/M11 A2998 RMK A01 T00301112  RH  034%=      5-min Rain = 0
KDVS 241005Z 32007KT 03/M11 A2998 RMK A01 T00281109  RH  036%=      5-min Rain = 0
KDVS 241010Z 33009KT 03/M11 A2999 RMK A01 T00271107  RH  037%=      5-min Rain = 0
KDVS 241015Z 34012KT 03/M11 A30 RMK A01 T00311108  RH  035%=      5-min Rain = 0
KDVS 241020Z 35013KT 03/M11 A3001 RMK A01 T00341106  RH  035%=      5-min Rain = 0
KDVS 241025Z 35013KT 04/M10 A3001 RMK A01 T00431100  RH  034%=      5-min Rain = 0
KDVS 241030Z 35014KT 05/M09 A3001 RMK A01 T00521090  RH  035%=      5-min Rain = 0
KDVS 241035Z 36014KT 06/M08 A3002 RMK A01 T00571083  RH  036%=      5-min Rain = 0
KDVS 241040Z 00013KT 06/M08 A3002 RMK A01 T00581075  RH  038%=      5-min Rain = 0
KDVS 241045Z 00011KT 06/M07 A3003 RMK A01 T00561071  RH  040%=      5-min Rain = 0
KDVS 241050Z 00011KT 06/M07 A3003 RMK A01 T00551068  RH  041%=      5-min Rain = 0
KDVS 241055Z 00011KT 05/M07 A3003 RMK A01 T00531066  RH  042%=      5-min Rain = 0
KDVS 241100Z 01011KT 05/M07 A3003 RMK A01 T00511065  RH  043%=      5-min Rain = 0
KDVS 241105Z 00012KT 05/M06 A3003 RMK A01 T00501063  RH  044%=      5-min Rain = 0
KDVS 241110Z 01013KT 05/M06 A3004 RMK A01 T00501060  RH  045%=      5-min Rain = 0
KDVS 241115Z 01012KT 05/M06 A3004 RMK A01 T00481058  RH  046%=      5-min Rain = 0
KDVS 241120Z 01011KT 05/M06 A3004 RMK A01 T00451057  RH  047%=      5-min Rain = 0
KDVS 241125Z 01012G17KT 04/M06 A3004 RMK A01 T00421056  RH  049%=      5-min Rain = 0
KDVS 241130Z 01012KT 04/M05 A3005 RMK A01 T00441051  RH  050%=      5-min Rain = 0
KDVS 241135Z 01012KT 04/M05 A3005 RMK A01 T00431050  RH  051%=      5-min Rain = 0
KDVS 241140Z 01010KT 04/M05 A3005 RMK A01 T00401049  RH  052%=      5-min Rain = 0
KDVS 241145Z 00010KT 04/M05 A3006 RMK A01 T00381049  RH  053%=      5-min Rain = 0
KDVS 241150Z 01012KT 04/M05 A3006 RMK A01 T00391047  RH  053%=      5-min Rain = 0
KDVS 241155Z 01012KT 04/M05 A3006 RMK A01 T00421046  RH  053%=      5-min Rain = 0
KDVS 241200Z 01013KT 04/M05 A3007 RMK A01 T00431046  RH  053%=      5-min Rain = 0
KDVS 241205Z 01013KT 04/M05 A3007 RMK A01 T00431046  RH  052%=      5-min Rain = 0
KDVS 241210Z 02013G18KT 04/M05 A3007 RMK A01 T00441047  RH  052%=      5-min Rain = 0
KDVS 241215Z 02013KT 04/M05 A3007 RMK A01 T00431048  RH  052%=      5-min Rain = 0
KDVS 241220Z 01012KT 04/M05 A3008 RMK A01 T00431048  RH  052%=      5-min Rain = 0
KDVS 241225Z 01011KT 04/M05 A3008 RMK A01 T00401049  RH  052%=      5-min Rain = 0
KDVS 241230Z 01011KT 04/M05 A3008 RMK A01 T00371049  RH  054%=      5-min Rain = 0
KDVS 241235Z 00011KT 03/M05 A3008 RMK A01 T00341049  RH  055%=      5-min Rain = 0
KDVS 241240Z 00011KT 03/M05 A3008 RMK A01 T00331049  RH  055%=      5-min Rain = 0
KDVS 241245Z 36010KT 03/M05 A3009 RMK A01 T00311048  RH  056%=      5-min Rain = 0
KDVS 241250Z 36011KT 03/M05 A3009 RMK A01 T00301047  RH  057%=      5-min Rain = 0
KDVS 241255Z 01011KT 03/M05 A301 RMK A01 T00311047  RH  057%=      5-min Rain = 0
KDVS 241300Z 01010G15KT 03/M05 A301 RMK A01 T00301048  RH  057%=      5-min Rain = 0
KDVS 241305Z 00010KT 03/M05 A301 RMK A01 T00281049  RH  057%=      5-min Rain = 0
KDVS 241310Z 00010KT 03/M05 A301 RMK A01 T00271050  RH  057%=      5-min Rain = 0
KDVS 241315Z 00009KT 03/M05 A3011 RMK A01 T00251050  RH  058%=      5-min Rain = 0
KDVS 241320Z 36009KT 02/M05 A3011 RMK A01 T00241050  RH  058%=      5-min Rain = 0
KDVS 241325Z 36009KT 02/M05 A3011 RMK A01 T00231049  RH  059%=      5-min Rain = 0
KDVS 241330Z 36009KT 02/M05 A3011 RMK A01 T00221049  RH  060%=      5-min Rain = 0
KDVS 241335Z 00009KT 02/M05 A3012 RMK A01 T00221048  RH  060%=      5-min Rain = 0
KDVS 241340Z 36009KT 02/M05 A3012 RMK A01 T00231048  RH  060%=      5-min Rain = 0
KDVS 241345Z 36009KT 02/M05 A3012 RMK A01 T00241047  RH  059%=      5-min Rain = 0
KDVS 241350Z 36010KT 03/M05 A3012 RMK A01 T00261047  RH  059%=      5-min Rain = 0
KDVS 241355Z 00010KT 03/M05 A3013 RMK A01 T00271046  RH  058%=      5-min Rain = 0
KDVS 241400Z 00010KT 03/M05 A3013 RMK A01 T00291046  RH  058%=      5-min Rain = 0
KDVS 241405Z 00010KT 03/M05 A3013 RMK A01 T00311046  RH  057%=      5-min Rain = 0
KDVS 241410Z 00011KT 03/M05 A3013 RMK A01 T00331045  RH  057%=      5-min Rain = 0
KDVS 241415Z 01011KT 04/M05 A3014 RMK A01 T00361045  RH  056%=      5-min Rain = 0
KDVS 241420Z 01012KT 04/M05 A3014 RMK A01 T00391045  RH  054%=      5-min Rain = 0
KDVS 241425Z 01011G16KT 04/M05 A3014 RMK A01 T00421045  RH  053%=      5-min Rain = 0
KDVS 241430Z 01012G17KT 05/M05 A3015 RMK A01 T00451045  RH  052%=      5-min Rain = 0
KDVS 241435Z 01012KT 05/M05 A3015 RMK A01 T00481045  RH  051%=      5-min Rain = 0
KDVS 241440Z 01014KT 05/M05 A3015 RMK A01 T00511046  RH  050%=      5-min Rain = 0
KDVS 241445Z 02015KT 05/M05 A3016 RMK A01 T00541048  RH  048%=      5-min Rain = 0
KDVS 241450Z 02015KT 06/M05 A3016 RMK A01 T00571049  RH  047%=      5-min Rain = 0
KDVS 241455Z 02014KT 06/M05 A3016 RMK A01 T00591050  RH  046%=      5-min Rain = 0
KDVS 241500Z 02015KT 06/M05 A3016 RMK A01 T00611049  RH  045%=      5-min Rain = 0
KDVS 241505Z 03015KT 06/M05 A3017 RMK A01 T00621050  RH  045%=      5-min Rain = 0
KDVS 241510Z 02014KT 06/M05 A3017 RMK A01 T00641049  RH  044%=      5-min Rain = 0
KDVS 241515Z 03014G21KT 07/M05 A3017 RMK A01 T00671049  RH  044%=      5-min Rain = 0
KDVS 241520Z 03015G20KT 07/M05 A3018 RMK A01 T00711050  RH  042%=      5-min Rain = 0
KDVS 241525Z 03016G21KT 07/M05 A3018 RMK A01 T00741051  RH  041%=      5-min Rain = 0
KDVS 241530Z 03014KT 08/M05 A3018 RMK A01 T00771049  RH  041%=      5-min Rain = 0
KDVS 241535Z 03016KT 08/M05 A3018 RMK A01 T00781051  RH  040%=      5-min Rain = 0
KDVS 241540Z 03016KT 08/M05 A3018 RMK A01 T00791051  RH  039%=      5-min Rain = 0
KDVS 241545Z 03017KT 08/M05 A3018 RMK A01 T00811051  RH  039%=      5-min Rain = 0
KDVS 241550Z 03016KT 08/M05 A3018 RMK A01 T00811051  RH  039%=      5-min Rain = 0
KDVS 241555Z 04016G21KT 09/M05 A3018 RMK A01 T00851050  RH  038%=      5-min Rain = 0
KDVS 241600Z 04015G20KT 09/M05 A3018 RMK A01 T00871051  RH  038%=      5-min Rain = 0
KDVS 241605Z 03015KT 09/M05 A3018 RMK A01 T00891050  RH  037%=      5-min Rain = 0
KDVS 241610Z 04016KT 09/M05 A3018 RMK A01 T00911050  RH  037%=      5-min Rain = 0
KDVS 241615Z 04016KT 09/M05 A3018 RMK A01 T00921049  RH  037%=      5-min Rain = 0
KDVS 241620Z 04017KT 09/M05 A3018 RMK A01 T00921049  RH  037%=      5-min Rain = 0
KDVS 241625Z 04014G20KT 10/M05 A3018 RMK A01 T00961048  RH  036%=      5-min Rain = 0
KDVS 241630Z 03015G20KT 10/M05 A3018 RMK A01 T00981048  RH  036%=      5-min Rain = 0
KDVS 241635Z 04014G20KT 10/M05 A3018 RMK A01 T00981049  RH  035%=      5-min Rain = 0
KDVS 241640Z 04014G19KT 10/M05 A3018 RMK A01 T01001048  RH  035%=      5-min Rain = 0
KDVS 241645Z 04013G19KT 10/M05 A3018 RMK A01 T01001048  RH  035%=      5-min Rain = 0
KDVS 241650Z 04015KT 10/M05 A3019 RMK A01 T01031046  RH  035%=      5-min Rain = 0
KDVS 241655Z 05014G19KT 10/M05 A3018 RMK A01 T01001046  RH  035%=      5-min Rain = 0
KDVS 241700Z 04015G20KT 10/M05 A3018 RMK A01 T01021045  RH  035%=      5-min Rain = 0
KDVS 241705Z 04014G20KT 11/M04 A3019 RMK A01 T01051044  RH  035%=      5-min Rain = 0
KDVS 241710Z 05013G18KT 11/M04 A3019 RMK A01 T01061044  RH  035%=      5-min Rain = 0
KDVS 241715Z 05013KT 11/M04 A3019 RMK A01 T01081044  RH  034%=      5-min Rain = 0
KDVS 241720Z 05013KT 11/M04 A3019 RMK A01 T01091043  RH  034%=      5-min Rain = 0
KDVS 241725Z 06011G17KT 11/M04 A3019 RMK A01 T01091043  RH  034%=      5-min Rain = 0
KDVS 241730Z 05012KT 11/M04 A3019 RMK A01 T01121043  RH  034%=      5-min Rain = 0
KDVS 241735Z 06012KT 11/M04 A3019 RMK A01 T01121043  RH  034%=      5-min Rain = 0
KDVS 241740Z 06011KT 12/M04 A3019 RMK A01 T01171041  RH  033%=      5-min Rain = 0
KDVS 241745Z 06011KT 11/M04 A3019 RMK A01 T01141043  RH  033%=      5-min Rain = 0
KDVS 241750Z 06010KT 11/M04 A3019 RMK A01 T01141042  RH  033%=      5-min Rain = 0
KDVS 241755Z 05009G15KT 12/M04 A3019 RMK A01 T01191041  RH  033%=      5-min Rain = 0
KDVS 241800Z 06010G15KT 12/M04 A3019 RMK A01 T01191042  RH  032%=      5-min Rain = 0
KDVS 241805Z 07009G14KT 12/M04 A3019 RMK A01 T01201042  RH  032%=      5-min Rain = 0
KDVS 241810Z 08009KT 12/M04 A3019 RMK A01 T01211042  RH  032%=      5-min Rain = 0
KDVS 241815Z 06009KT 12/M04 A3019 RMK A01 T01191043  RH  032%=      5-min Rain = 0
KDVS 241820Z 08009G14KT 12/M04 A3018 RMK A01 T01231042  RH  032%=      5-min Rain = 0
KDVS 241825Z 08007KT 12/M04 A3018 RMK A01 T01231043  RH  031%=      5-min Rain = 0
KDVS 241830Z 07010KT 13/M04 A3018 RMK A01 T01261042  RH  031%=      5-min Rain = 0
KDVS 241835Z 08007KT 12/M04 A3018 RMK A01 T01231043  RH  031%=      5-min Rain = 0
KDVS 241840Z 10009G14KT 13/M04 A3017 RMK A01 T01291041  RH  031%=      5-min Rain = 0
KDVS 241845Z 06009G14KT 13/M04 A3017 RMK A01 T01291042  RH  030%=      5-min Rain = 0
KDVS 241850Z 05008KT 13/M04 A3017 RMK A01 T01281041  RH  031%=      5-min Rain = 0
KDVS 241855Z 07008G13KT 13/M04 A3016 RMK A01 T01291042  RH  030%=      5-min Rain = 0
KDVS 241900Z 06007G14KT 13/M04 A3016 RMK A01 T01281042  RH  030%=      5-min Rain = 0
KDVS 241905Z 08008KT 13/M04 A3016 RMK A01 T01311041  RH  030%=      5-min Rain = 0
KDVS 241910Z 09008KT 13/M04 A3015 RMK A01 T01341041  RH  029%=      5-min Rain = 0
KDVS 241915Z 09005G10KT 13/M04 A3015 RMK A01 T01301042  RH  030%=      5-min Rain = 0
KDVS 241920Z 08009G14KT 13/M04 A3015 RMK A01 T01331042  RH  029%=      5-min Rain = 0
KDVS 241925Z 06008KT 13/M04 A3014 RMK A01 T01321042  RH  030%=      5-min Rain = 0
KDVS 241930Z 08010G15KT 14/M04 A3014 RMK A01 T01361042  RH  029%=      5-min Rain = 0
KDVS 241935Z 09008G13KT 13/M04 A3014 RMK A01 T01341043  RH  029%=      5-min Rain = 0
KDVS 241940Z 09009G14KT 14/M04 A3014 RMK A01 T01391041  RH  029%=      5-min Rain = 0
KDVS 241945Z 10007G12KT 14/M04 A3014 RMK A01 T01371043  RH  028%=      5-min Rain = 0
KDVS 241950Z 08006G12KT 14/M04 A3013 RMK A01 T01371041  RH  029%=      5-min Rain = 0
KDVS 241955Z 10007G12KT 14/M04 A3013 RMK A01 T01401043  RH  028%=      5-min Rain = 0
KDVS 242000Z 08007G12KT 14/M04 A3013 RMK A01 T01351043  RH  029%=      5-min Rain = 0
KDVS 242005Z 09006KT 14/M04 A3012 RMK A01 T01381041  RH  029%=      5-min Rain = 0
KDVS 242010Z 09007KT 14/M04 A3012 RMK A01 T01431042  RH  028%=      5-min Rain = 0
KDVS 242015Z 07006G13KT 14/M04 A3012 RMK A01 T01431041  RH  028%=      5-min Rain = 0
KDVS 242020Z 07008G14KT 14/M04 A3011 RMK A01 T01441041  RH  028%=      5-min Rain = 0
KDVS 242025Z 05007KT 15/M04 A3011 RMK A01 T01451041  RH  028%=      5-min Rain = 0
KDVS 242030Z 08006KT 14/M04 A301 RMK A01 T01441041  RH  028%=      5-min Rain = 0
KDVS 242035Z 08009KT 15/M04 A301 RMK A01 T01471040  RH  027%=      5-min Rain = 0
KDVS 242040Z 06006KT 15/M04 A301 RMK A01 T01451042  RH  027%=      5-min Rain = 0
KDVS 242045Z 12006KT 15/M04 A301 RMK A01 T01501039  RH  027%=      5-min Rain = 0
KDVS 242050Z 16009KT 15/M04 A301 RMK A01 T01521042  RH  026%=      5-min Rain = 0
KDVS 242055Z 15007KT 15/M04 A301 RMK A01 T01501041  RH  027%=      5-min Rain = 0
KDVS 242100Z 13007KT 15/M04 A301 RMK A01 T01481041  RH  027%=      5-min Rain = 0
KDVS 242105Z 11004KT 15/M04 A301 RMK A01 T01471042  RH  027%=      5-min Rain = 0
KDVS 242110Z 11006KT 15/M04 A3009 RMK A01 T01491039  RH  027%=      5-min Rain = 0
KDVS 242115Z 13009KT 15/M04 A3009 RMK A01 T01531040  RH  026%=      5-min Rain = 0
KDVS 242120Z 12007G12KT 15/M04 A301 RMK A01 T01511041  RH  026%=      5-min Rain = 0
KDVS 242125Z 12004KT 15/M04 A3009 RMK A01 T01501041  RH  027%=      5-min Rain = 0
KDVS 242130Z 12004KT 15/M04 A3009 RMK A01 T01531041  RH  026%=      5-min Rain = 0
KDVS 242135Z 13005KT 15/M04 A3009 RMK A01 T01541039  RH  026%=      5-min Rain = 0
KDVS 242140Z 13008KT 16/M04 A3009 RMK A01 T01561041  RH  026%=      5-min Rain = 0
KDVS 242145Z 15006KT 16/M04 A3009 RMK A01 T01561042  RH  025%=      5-min Rain = 0
KDVS 242150Z 17003G10KT 16/M04 A3009 RMK A01 T01571042  RH  025%=      5-min Rain = 0
KDVS 242155Z 12004G9KT 16/M04 A3009 RMK A01 T01551041  RH  026%=      5-min Rain = 0
KDVS 242200Z 12005G10KT 16/M04 A3009 RMK A01 T01551039  RH  026%=      5-min Rain = 0
KDVS 242205Z 14006KT 16/M04 A3009 RMK A01 T01571038  RH  026%=      5-min Rain = 0
KDVS 242210Z 14008KT 16/M04 A3009 RMK A01 T01571040  RH  026%=      5-min Rain = 0
KDVS 242215Z 15007KT 16/M04 A3009 RMK A01 T01571040  RH  026%=      5-min Rain = 0
KDVS 242220Z 13006KT 16/M04 A3009 RMK A01 T01561040  RH  026%=      5-min Rain = 0
KDVS 242225Z 14008KT 16/M04 A3008 RMK A01 T01581040  RH  025%=      5-min Rain = 0
KDVS 242230Z 13009KT 16/M04 A3008 RMK A01 T01571039  RH  026%=      5-min Rain = 0
KDVS 242235Z 14008G13KT 16/M04 A3008 RMK A01 T01581039  RH  026%=      5-min Rain = 0
KDVS 242240Z 13007KT 16/M04 A3008 RMK A01 T01601039  RH  025%=      5-min Rain = 0
KDVS 242245Z 13006KT 16/M04 A3008 RMK A01 T01571039  RH  026%=      5-min Rain = 0
KDVS 242250Z 14008G14KT 16/M04 A3008 RMK A01 T01571040  RH  026%=      5-min Rain = 0
KDVS 242255Z 13006G13KT 16/M04 A3008 RMK A01 T01601038  RH  026%=      5-min Rain = 0
KDVS 242300Z 15008KT 16/M04 A3008 RMK A01 T01591038  RH  026%=      5-min Rain = 0
KDVS 242305Z 13009G14KT 16/M04 A3007 RMK A01 T01581038  RH  026%=      5-min Rain = 0
KDVS 242310Z 12010KT 16/M04 A3007 RMK A01 T01571038  RH  026%=      5-min Rain = 0
KDVS 242315Z 12012KT 16/M04 A3007 RMK A01 T01571037  RH  026%=      5-min Rain = 0
KDVS 242320Z 13010KT 16/M04 A3006 RMK A01 T01561038  RH  026%=      5-min Rain = 0
KDVS 242325Z 12010KT 16/M04 A3007 RMK A01 T01561037  RH  026%=      5-min Rain = 0
KDVS 242330Z 14010KT 16/M04 A3007 RMK A01 T01571037  RH  026%=      5-min Rain = 0
KDVS 242335Z 14008KT 16/M04 A3007 RMK A01 T01561038  RH  026%=      5-min Rain = 0
KDVS 242340Z 15010KT 16/M04 A3007 RMK A01 T01561040  RH  026%=      5-min Rain = 0
KDVS 242345Z 15009KT 16/M04 A3006 RMK A01 T01551041  RH  026%=      5-min Rain = 0
KDVS 242350Z 14009KT 15/M04 A3006 RMK A01 T01541041  RH  026%=      5-min Rain = 0
KDVS 242355Z 14008KT 15/M04 A3007 RMK A01 T01531039  RH  026%=      5-min Rain = 0
KDVS 250000Z 13010KT 15/M04 A3006 RMK A01 T01521038  RH  027%=      5-min Rain = 0
KDVS 250005Z 12008KT 15/M04 A3006 RMK A01 T01501038  RH  027%=      5-min Rain = 0
KDVS 250010Z 11008KT 15/M04 A3006 RMK A01 T01491037  RH  028%=      5-min Rain = 0
KDVS 250015Z 13009KT 15/M04 A3006 RMK A01 T01471037  RH  028%=      5-min Rain = 0
KDVS 250020Z 13008KT 15/M04 A3007 RMK A01 T01451037  RH  028%=      5-min Rain = 0
KDVS 250025Z 13007KT 14/M04 A3007 RMK A01 T01411037  RH  029%=      5-min Rain = 0
KDVS 250030Z 13007KT 14/M04 A3007 RMK A01 T01361038  RH  030%=      5-min Rain = 0
KDVS 250035Z 12006KT 13/M04 A3007 RMK A01 T01291038  RH  031%=      5-min Rain = 0
KDVS 250040Z 12006KT 12/M04 A3007 RMK A01 T01221038  RH  033%=      5-min Rain = 0
KDVS 250045Z 12006KT 12/M04 A3007 RMK A01 T01161038  RH  034%=      5-min Rain = 0
KDVS 250050Z 12007KT 11/M04 A3007 RMK A01 T01121039  RH  035%=      5-min Rain = 0
KDVS 250055Z 11007KT 11/M04 A3007 RMK A01 T01061040  RH  036%=      5-min Rain = 0
KDVS 250100Z 11007KT 10/M04 A3008 RMK A01 T01031039  RH  037%=      5-min Rain = 0
KDVS 250105Z 10007KT 10/M04 A3008 RMK A01 T01001040  RH  037%=      5-min Rain = 0
KDVS 250110Z 10007KT 10/M04 A3008 RMK A01 T00961040  RH  038%=      5-min Rain = 0
KDVS 250115Z 10008KT 09/M04 A3008 RMK A01 T00931039  RH  039%=      5-min Rain = 0
KDVS 250120Z 09008KT 09/M04 A3009 RMK A01 T00911038  RH  040%=      5-min Rain = 0
KDVS 250125Z 09008KT 09/M04 A3009 RMK A01 T00891038  RH  041%=      5-min Rain = 0
KDVS 250130Z 07008KT 09/M04 A3009 RMK A01 T00871037  RH  041%=      5-min Rain = 0
KDVS 250135Z 07008KT 08/M04 A3009 RMK A01 T00841038  RH  042%=      5-min Rain = 0
KDVS 250140Z 07008KT 08/M04 A3009 RMK A01 T00801037  RH  044%=      5-min Rain = 0
KDVS 250145Z 07009KT 08/M04 A3009 RMK A01 T00771037  RH  045%=      5-min Rain = 0
KDVS 250150Z 07008KT 07/M04 A3009 RMK A01 T00741036  RH  046%=      5-min Rain = 0
KDVS 250155Z 08009KT 07/M03 A301 RMK A01 T00741034  RH  046%=      5-min Rain = 0
KDVS 250200Z 08009KT 07/M03 A301 RMK A01 T00741033  RH  047%=      5-min Rain = 0
KDVS 250205Z 08009KT 08/M03 A301 RMK A01 T00751032  RH  047%=      5-min Rain = 0
KDVS 250210Z 08009KT 07/M03 A301 RMK A01 T00731031  RH  048%=      5-min Rain = 0
KDVS 250215Z 08009KT 08/M03 A301 RMK A01 T00761030  RH  047%=      5-min Rain = 0
KDVS 250220Z 08008KT 08/M03 A301 RMK A01 T00771030  RH  047%=      5-min Rain = 0
KDVS 250225Z 08009KT 08/M03 A3011 RMK A01 T00771030  RH  047%=      5-min Rain = 0
KDVS 250230Z 07008KT 08/M03 A3011 RMK A01 T00751029  RH  048%=      5-min Rain = 0
KDVS 250235Z 08009KT 08/M03 A3011 RMK A01 T00761029  RH  048%=      5-min Rain = 0
KDVS 250240Z 08009KT 08/M03 A301 RMK A01 T00781028  RH  047%=      5-min Rain = 0
KDVS 250245Z 09010KT 08/M03 A301 RMK A01 T00791027  RH  047%=      5-min Rain = 0
KDVS 250250Z 10010KT 08/M03 A3011 RMK A01 T00801027  RH  047%=      5-min Rain = 0
KDVS 250255Z 09011KT 08/M03 A3011 RMK A01 T00821028  RH  046%=      5-min Rain = 0
KDVS 250300Z 09011KT 08/M03 A301 RMK A01 T00841029  RH  045%=      5-min Rain = 0
KDVS 250305Z 09012KT 08/M03 A3011 RMK A01 T00831030  RH  045%=      5-min Rain = 0
KDVS 250310Z 09012KT 08/M03 A3011 RMK A01 T00831031  RH  045%=      5-min Rain = 0
KDVS 250315Z 09012KT 08/M03 A3011 RMK A01 T00841031  RH  044%=      5-min Rain = 0
KDVS 250320Z 10011KT 08/M03 A3012 RMK A01 T00831031  RH  045%=      5-min Rain = 0
KDVS 250325Z 10011KT 08/M03 A3012 RMK A01 T00811031  RH  045%=      5-min Rain = 0
KDVS 250330Z 10014G19KT 08/M03 A3012 RMK A01 T00841031  RH  045%=      5-min Rain = 0
KDVS 250335Z 10015KT 09/M03 A3012 RMK A01 T00851031  RH  044%=      5-min Rain = 0
KDVS 250340Z 10014KT 08/M03 A3012 RMK A01 T00841031  RH  044%=      5-min Rain = 0
KDVS 250345Z 10013KT 08/M03 A3013 RMK A01 T00811031  RH  045%=      5-min Rain = 0
KDVS 250350Z 11014KT 08/M03 A3013 RMK A01 T00811031  RH  045%=      5-min Rain = 0
KDVS 250355Z 11013KT 08/M03 A3013 RMK A01 T00801031  RH  046%=      5-min Rain = 0
KDVS 250400Z 11013KT 08/M03 A3013 RMK A01 T00791031  RH  046%=      5-min Rain = 0
KDVS 250405Z 11013KT 08/M03 A3014 RMK A01 T00771032  RH  046%=      5-min Rain = 0
KDVS 250410Z 10012KT 08/M03 A3014 RMK A01 T00751031  RH  047%=      5-min Rain = 0
KDVS 250415Z 10013KT 08/M03 A3014 RMK A01 T00751031  RH  047%=      5-min Rain = 0
KDVS 250420Z 10013KT 08/M03 A3014 RMK A01 T00751032  RH  047%=      5-min Rain = 0
KDVS 250425Z 10013KT 08/M03 A3014 RMK A01 T00751032  RH  047%=      5-min Rain = 0
KDVS 250430Z 10013KT 08/M03 A3014 RMK A01 T00751032  RH  047%=      5-min Rain = 0
KDVS 250435Z 10014G19KT 08/M03 A3015 RMK A01 T00751033  RH  047%=      5-min Rain = 0
KDVS 250440Z 10015KT 08/M03 A3015 RMK A01 T00751033  RH  046%=      5-min Rain = 0
KDVS 250445Z 10014G20KT 07/M03 A3015 RMK A01 T00741034  RH  046%=      5-min Rain = 0
KDVS 250450Z 10015KT 07/M04 A3015 RMK A01 T00731035  RH  047%=      5-min Rain = 0
KDVS 250455Z 10014KT 07/M04 A3015 RMK A01 T00721036  RH  046%=      5-min Rain = 0
KDVS 250500Z 10014KT 07/M04 A3015 RMK A01 T00701037  RH  047%=      5-min Rain = 0
KDVS 250505Z 10014G19KT 07/M04 A3015 RMK A01 T00701038  RH  047%=      5-min Rain = 0
KDVS 250510Z 10013G18KT 07/M04 A3015 RMK A01 T00681039  RH  047%=      5-min Rain = 0
KDVS 250515Z 10014KT 07/M04 A3015 RMK A01 T00681039  RH  047%=      5-min Rain = 0
KDVS 250520Z 10013KT 07/M04 A3015 RMK A01 T00671039  RH  047%=      5-min Rain = 0
KDVS 250525Z 09013G18KT 07/M04 A3015 RMK A01 T00661039  RH  047%=      5-min Rain = 0
KDVS 250530Z 09014KT 07/M04 A3015 RMK A01 T00651040  RH  047%=      5-min Rain = 0
KDVS 250535Z 10014G19KT 06/M04 A3015 RMK A01 T00641040  RH  048%=      5-min Rain = 0
KDVS 250540Z 10013G19KT 06/M04 A3015 RMK A01 T00641039  RH  048%=      5-min Rain = 0
KDVS 250545Z 10013KT 06/M04 A3015 RMK A01 T00631039  RH  049%=      5-min Rain = 0
KDVS 250550Z 10014G19KT 06/M04 A3015 RMK A01 T00631038  RH  049%=      5-min Rain = 0
KDVS 250555Z 10014G20KT 06/M04 A3015 RMK A01 T00621038  RH  049%=      5-min Rain = 0

Page generated in 0.0118 seconds.